createdAt,value
2019-02-02T00:02:08.192Z,101031.05
2019-02-02T00:04:39.387Z,101027.19
2019-02-02T00:07:10.646Z,101034.40
2019-02-02T00:09:41.879Z,101033.72
2019-02-02T00:12:13.058Z,101030.66
2019-02-02T00:14:45.272Z,101024.61
2019-02-02T00:17:16.743Z,101029.60
2019-02-02T00:19:48.209Z,101036.06
2019-02-02T00:22:19.447Z,101038.44
2019-02-02T00:24:50.710Z,101025.37
2019-02-02T00:27:21.855Z,101036.78
2019-02-02T00:29:53.021Z,101027.04
2019-02-02T00:32:24.172Z,101029.05
2019-02-02T00:34:55.789Z,101023.72
2019-02-02T00:37:27.247Z,101026.60
2019-02-02T00:39:58.391Z,101033.44
2019-02-02T00:42:29.651Z,101020.46
2019-02-02T00:45:00.770Z,101024.30
2019-02-02T00:47:32.799Z,101020.27
2019-02-02T00:50:07.227Z,101021.26
2019-02-02T00:52:38.459Z,101020.30
2019-02-02T00:55:10.114Z,101024.70
2019-02-02T00:57:52.697Z,101016.83
2019-02-02T01:00:14.856Z,101017.19
2019-02-02T01:02:46.005Z,101025.06
2019-02-02T01:05:17.522Z,101015.38
2019-02-02T01:07:48.844Z,101018.53
2019-02-02T01:10:25.486Z,101017.68
2019-02-02T01:12:56.731Z,101015.67
2019-02-02T01:15:29.085Z,101007.97
2019-02-02T01:18:01.501Z,101007.91
2019-02-02T01:20:32.789Z,101011.56
2019-02-02T01:23:05.075Z,101004.16
2019-02-02T01:25:36.211Z,101012.25
2019-02-02T01:28:07.364Z,101008.59
2019-02-02T01:30:38.505Z,101001.38
2019-02-02T01:33:09.915Z,101009.94
2019-02-02T01:35:41.609Z,101001.55
2019-02-02T01:38:12.981Z,101007.53
2019-02-02T01:40:44.132Z,101005.86
2019-02-02T01:43:15.469Z,101007.42
2019-02-02T01:45:46.701Z,100937.59
2019-02-02T01:48:17.917Z,101010.27
2019-02-02T01:50:49.066Z,101009.23
2019-02-02T01:53:20.226Z,101014.70
2019-02-02T01:55:51.362Z,101006.84
2019-02-02T01:58:22.603Z,101023.36
2019-02-02T02:00:53.814Z,101018.84
2019-02-02T02:03:24.967Z,101011.28
2019-02-02T02:05:56.171Z,101014.63
2019-02-02T02:08:27.330Z,101012.05
2019-02-02T02:10:58.454Z,101011.75
2019-02-02T02:13:29.613Z,101014.31
2019-02-02T02:16:00.774Z,101016.17
2019-02-02T02:18:32.041Z,101023.67
2019-02-02T02:21:03.248Z,101024.73
2019-02-02T02:23:35.678Z,101030.83
2019-02-02T02:26:06.894Z,101019.77
2019-02-02T02:28:38.049Z,101025.45
2019-02-02T02:31:09.139Z,101033.44
2019-02-02T02:33:40.383Z,101028.74
2019-02-02T02:36:11.524Z,101025.06
2019-02-02T02:38:42.873Z,101029.02
2019-02-02T02:41:14.224Z,101031.67
2019-02-02T02:43:45.294Z,101031.70
2019-02-02T02:46:16.519Z,101031.15
2019-02-02T02:48:48.264Z,101028.77
2019-02-02T02:51:19.511Z,101030.47
2019-02-02T02:53:50.559Z,101028.77
2019-02-02T02:56:21.711Z,101032.66
2019-02-02T02:58:52.842Z,101029.70
2019-02-02T03:01:24.197Z,101029.42
2019-02-02T03:03:55.351Z,101022.70
2019-02-02T03:06:26.939Z,101026.13
2019-02-02T03:08:58.457Z,101032.49
2019-02-02T03:11:29.668Z,101030.84
2019-02-02T03:14:00.881Z,101029.17
2019-02-02T03:16:32.029Z,101037.19
2019-02-02T03:19:03.937Z,101022.47
2019-02-02T03:21:35.005Z,101017.20
2019-02-02T03:24:06.192Z,101018.74
2019-02-02T03:26:37.429Z,101014.31
2019-02-02T03:29:08.662Z,101022.00
2019-02-02T03:31:39.850Z,101037.77
2019-02-02T03:34:10.937Z,101038.45
2019-02-02T03:36:43.453Z,101029.42
2019-02-02T03:39:14.978Z,101037.19
2019-02-02T03:41:46.059Z,101033.34
2019-02-02T03:44:17.207Z,101028.52
2019-02-02T03:46:48.347Z,101037.92
2019-02-02T03:49:19.551Z,101038.78
2019-02-02T03:51:51.745Z,101027.11
2019-02-02T03:54:22.895Z,101043.97
2019-02-02T03:56:54.038Z,101037.88
2019-02-02T03:59:25.050Z,101040.73
2019-02-02T04:01:56.294Z,101033.52
2019-02-02T04:04:27.657Z,101036.20
2019-02-02T04:06:58.808Z,101033.70
2019-02-02T04:09:30.802Z,101035.44
2019-02-02T04:12:02.740Z,101035.48
2019-02-02T04:14:34.789Z,101038.08
2019-02-02T04:17:05.969Z,101031.41
2019-02-02T04:19:37.181Z,101025.39
2019-02-02T04:22:08.309Z,101029.73
2019-02-02T04:24:40.848Z,101028.44
2019-02-02T04:27:12.023Z,101033.37
2019-02-02T04:29:43.318Z,101042.03
2019-02-02T04:32:14.492Z,101037.75
2019-02-02T04:34:45.809Z,101037.55
2019-02-02T04:37:16.984Z,101033.73
2019-02-02T04:39:48.228Z,101032.09
2019-02-02T04:42:21.576Z,101019.61
2019-02-02T04:44:52.734Z,101017.91
2019-02-02T04:47:24.365Z,101017.58
2019-02-02T04:49:55.583Z,101028.36
2019-02-02T04:52:26.608Z,101038.16
2019-02-02T04:54:57.725Z,101047.95
2019-02-02T04:57:28.834Z,101044.88
2019-02-02T05:00:00.204Z,101047.19
2019-02-02T05:02:31.241Z,101053.61
2019-02-02T05:05:03.013Z,101054.65
2019-02-02T05:07:34.821Z,101051.24
2019-02-02T05:10:06.205Z,101051.20
2019-02-02T05:12:37.402Z,101051.02
2019-02-02T05:15:08.603Z,101052.48
2019-02-02T05:17:39.886Z,101065.64
2019-02-02T05:20:12.220Z,101064.00
2019-02-02T05:22:44.065Z,101066.36
2019-02-02T05:25:15.248Z,101066.77
2019-02-02T05:27:46.426Z,101064.44
2019-02-02T05:30:20.596Z,101061.39
2019-02-02T05:32:51.738Z,101064.77
2019-02-02T05:35:22.865Z,101057.64
2019-02-02T05:37:55.461Z,101069.44
2019-02-02T05:40:26.606Z,101067.16
2019-02-02T05:42:57.758Z,101066.36
2019-02-02T05:45:28.850Z,101062.00
2019-02-02T05:47:59.977Z,101069.44
2019-02-02T05:50:31.062Z,101067.08
2019-02-02T05:53:02.643Z,101069.27
2019-02-02T05:55:33.957Z,101075.14
2019-02-02T05:58:05.510Z,101076.79
2019-02-02T06:00:55.547Z,101083.52
2019-02-02T06:03:26.798Z,101082.80
2019-02-02T06:05:58.052Z,101080.11
2019-02-02T06:08:29.143Z,101081.84
2019-02-02T06:11:00.394Z,101083.84
2019-02-02T06:13:31.995Z,101083.84
2019-02-02T06:16:04.615Z,101084.23
2019-02-02T06:18:36.225Z,101083.52
2019-02-02T06:21:07.303Z,101097.89
2019-02-02T06:23:38.482Z,101092.90
2019-02-02T06:26:09.677Z,101094.60
2019-02-02T06:28:40.865Z,101090.89
2019-02-02T06:31:12.898Z,101098.28
2019-02-02T06:33:44.682Z,101093.31
2019-02-02T06:36:15.743Z,101099.34
2019-02-02T06:38:48.403Z,101109.67
2019-02-02T06:41:19.583Z,101106.23
2019-02-02T06:43:50.772Z,101108.46
2019-02-02T06:46:22.655Z,101110.11
2019-02-02T06:48:53.889Z,101116.34
2019-02-02T06:51:25.036Z,101125.55
2019-02-02T06:53:56.171Z,101121.87
2019-02-02T06:56:27.318Z,101126.03
2019-02-02T06:58:58.528Z,101124.30
2019-02-02T07:01:29.761Z,101122.59
2019-02-02T07:04:00.919Z,101130.03
2019-02-02T07:06:32.682Z,101130.03
2019-02-02T07:09:05.150Z,101131.78
2019-02-02T07:11:36.740Z,101128.99
2019-02-02T07:14:08.584Z,101135.08
2019-02-02T07:16:39.683Z,101067.06
2019-02-02T07:19:15.739Z,101136.02
2019-02-02T07:21:50.062Z,101137.36
2019-02-02T07:24:21.237Z,101138.41
2019-02-02T07:26:55.622Z,101146.91
2019-02-02T07:29:28.394Z,101128.93
2019-02-02T07:31:59.707Z,101121.99
2019-02-02T07:34:30.814Z,101123.61
2019-02-02T07:37:02.596Z,101129.59
2019-02-02T07:39:34.306Z,101126.62
2019-02-02T07:42:05.462Z,101121.31
2019-02-02T07:44:37.185Z,101117.66
2019-02-02T07:47:09.306Z,101127.10
2019-02-02T07:49:40.445Z,101126.03
2019-02-02T07:52:11.681Z,101123.14
2019-02-02T07:54:42.799Z,101132.78
2019-02-02T07:57:13.965Z,101136.13
2019-02-02T07:59:45.119Z,101131.52
2019-02-02T08:02:16.202Z,101140.63
2019-02-02T08:04:50.481Z,101140.99
2019-02-02T08:07:25.027Z,101149.01
2019-02-02T08:09:56.206Z,101151.02
2019-02-02T08:12:27.437Z,101148.32
2019-02-02T08:14:58.704Z,101150.66
2019-02-02T08:17:32.305Z,101152.44
2019-02-02T08:20:02.826Z,101155.16
2019-02-02T08:22:33.973Z,101157.47
2019-02-02T08:25:06.172Z,101163.78
2019-02-02T08:27:37.322Z,101161.36
2019-02-02T08:30:16.457Z,101165.89
2019-02-02T08:32:47.745Z,101165.21
2019-02-02T08:35:18.967Z,101163.48
2019-02-02T08:37:50.215Z,101159.00
2019-02-02T08:40:21.404Z,101166.00
2019-02-02T08:42:53.080Z,101158.92
2019-02-02T08:45:24.254Z,101161.47
2019-02-02T08:47:55.483Z,101154.95
2019-02-02T08:50:29.526Z,101160.43
2019-02-02T08:53:04.036Z,101156.86
2019-02-02T08:55:35.348Z,101161.88
2019-02-02T08:58:06.738Z,101159.85
2019-02-02T09:00:37.890Z,101169.93
2019-02-02T09:03:09.129Z,101166.00
2019-02-02T09:05:40.356Z,101167.18
2019-02-02T09:08:11.663Z,101171.69
2019-02-02T09:10:42.889Z,101164.74
2019-02-02T09:13:14.105Z,101171.69
2019-02-02T09:15:45.327Z,101176.00
2019-02-02T09:18:16.397Z,101162.93
2019-02-02T09:20:47.720Z,101167.16
2019-02-02T09:23:18.866Z,101165.15
2019-02-02T09:25:50.145Z,101157.16
2019-02-02T09:28:21.342Z,101154.17
2019-02-02T09:30:52.865Z,101157.16
2019-02-02T09:33:24.346Z,101156.75
2019-02-02T09:35:57.356Z,101159.66
2019-02-02T09:38:28.516Z,101158.31
2019-02-02T09:41:00.032Z,101154.33
2019-02-02T09:43:31.261Z,101148.11
2019-02-02T09:46:04.767Z,101146.84
2019-02-02T09:48:35.982Z,101148.61
2019-02-02T09:51:07.798Z,101153.36
2019-02-02T09:53:39.363Z,101158.39
2019-02-02T09:56:10.832Z,101155.48
2019-02-02T09:58:42.921Z,101151.86
2019-02-02T10:01:27.867Z,101151.94
2019-02-02T10:03:57.084Z,101150.54
2019-02-02T10:06:28.256Z,101153.78
2019-02-02T10:08:59.412Z,101152.55
2019-02-02T10:11:31.782Z,101147.75
2019-02-02T10:14:05.688Z,101144.17
2019-02-02T10:16:40.861Z,101150.13
2019-02-02T10:19:11.251Z,101146.17
2019-02-02T10:21:42.593Z,101137.06
2019-02-02T10:24:14.100Z,101147.52
2019-02-02T10:26:51.384Z,101133.10
2019-02-02T10:29:26.569Z,101141.84
2019-02-02T10:31:55.911Z,101140.41
2019-02-02T10:34:27.246Z,101143.51
2019-02-02T10:36:58.484Z,101142.94
2019-02-02T10:39:29.775Z,101140.41
2019-02-02T10:42:00.961Z,101137.63
2019-02-02T10:44:33.225Z,101134.73
2019-02-02T10:47:04.405Z,101129.34
2019-02-02T10:49:35.538Z,101136.09
2019-02-02T10:52:06.745Z,101133.78
2019-02-02T10:54:38.192Z,101133.41
2019-02-02T10:57:09.378Z,101127.72
2019-02-02T10:59:40.609Z,101127.72
2019-02-02T11:02:11.769Z,101139.15
2019-02-02T11:04:44.189Z,101132.61
2019-02-02T11:07:15.398Z,101130.41
2019-02-02T11:09:46.569Z,101132.55
2019-02-02T11:12:17.715Z,101127.34
2019-02-02T11:14:49.314Z,101121.30
2019-02-02T11:17:20.695Z,101107.55
2019-02-02T11:19:51.856Z,101104.34
2019-02-02T11:22:23.210Z,101119.59
2019-02-02T11:24:54.549Z,101113.58
2019-02-02T11:27:25.710Z,101118.53
2019-02-02T11:29:57.172Z,101112.48
2019-02-02T11:32:33.929Z,101111.19
2019-02-02T11:35:06.495Z,101111.19
2019-02-02T11:37:37.930Z,101112.94
2019-02-02T11:40:12.042Z,101114.28
2019-02-02T11:42:43.197Z,101111.12
2019-02-02T11:45:14.557Z,101106.42
2019-02-02T11:47:46.335Z,101099.41
2019-02-02T11:50:17.605Z,101107.16
2019-02-02T11:52:49.107Z,101109.84
2019-02-02T11:55:20.257Z,101110.24
2019-02-02T11:57:51.641Z,101117.94
2019-02-02T12:00:27.819Z,101119.95
2019-02-02T12:02:59.166Z,101125.80
2019-02-02T12:05:30.421Z,101131.75
2019-02-02T12:08:01.602Z,101125.23
2019-02-02T12:10:32.779Z,101127.60
2019-02-02T12:13:04.624Z,101119.73
2019-02-02T12:15:35.859Z,101116.39
2019-02-02T12:18:07.054Z,101110.72
2019-02-02T12:20:38.269Z,101100.12
2019-02-02T12:23:09.594Z,101106.89
2019-02-02T12:25:40.862Z,101092.05
2019-02-02T12:28:12.551Z,101091.41
2019-02-02T12:30:43.994Z,101079.95
2019-02-02T12:33:15.547Z,101070.95
2019-02-02T12:35:47.017Z,101083.56
2019-02-02T12:38:18.281Z,101079.78
2019-02-02T12:40:49.470Z,101078.81
2019-02-02T12:43:20.637Z,101083.02
2019-02-02T12:45:53.502Z,101086.52
2019-02-02T12:48:24.660Z,101086.97
2019-02-02T12:50:56.871Z,101078.59
2019-02-02T12:53:28.006Z,101083.45
2019-02-02T12:55:59.164Z,101090.72
2019-02-02T12:58:30.701Z,101090.11
2019-02-02T13:01:01.919Z,101082.64
2019-02-02T13:03:33.010Z,101086.38
2019-02-02T13:06:04.592Z,101091.76
2019-02-02T13:08:36.908Z,101094.59
2019-02-02T13:11:08.106Z,101098.81
2019-02-02T13:13:42.762Z,101087.67
2019-02-02T13:16:14.100Z,101088.88
2019-02-02T13:18:45.211Z,101089.30
2019-02-02T13:21:16.393Z,101099.16
2019-02-02T13:23:47.811Z,101086.97
2019-02-02T13:26:19.601Z,101089.00
2019-02-02T13:28:50.711Z,101082.64
2019-02-02T13:31:21.814Z,101077.55
2019-02-02T13:33:53.018Z,101069.68
2019-02-02T13:36:24.192Z,101072.36
2019-02-02T13:38:55.344Z,101063.91
2019-02-02T13:41:27.076Z,101070.75
2019-02-02T13:43:58.262Z,101072.97
2019-02-02T13:46:29.428Z,101067.59
2019-02-02T13:49:00.605Z,101065.97
2019-02-02T13:51:31.789Z,101078.73
2019-02-02T13:54:03.101Z,101074.23
2019-02-02T13:56:34.334Z,101075.61
2019-02-02T13:59:05.514Z,101079.11
2019-02-02T14:01:42.175Z,101068.67
2019-02-02T14:04:09.841Z,101081.52
2019-02-02T14:06:40.950Z,101069.36
2019-02-02T14:09:12.037Z,101068.42
2019-02-02T14:11:44.179Z,101067.21
2019-02-02T14:14:15.343Z,101077.13
2019-02-02T14:16:46.547Z,101083.38
2019-02-02T14:19:18.179Z,101080.48
2019-02-02T14:21:49.281Z,101086.33
2019-02-02T14:24:20.475Z,101086.90
2019-02-02T14:26:51.685Z,101090.33
2019-02-02T14:29:22.860Z,101085.17
2019-02-02T14:31:54.520Z,101091.83
2019-02-02T14:34:25.797Z,101088.66
2019-02-02T14:36:56.978Z,101096.24
2019-02-02T14:39:28.153Z,101088.45
2019-02-02T14:41:59.225Z,101096.07
2019-02-02T14:44:30.334Z,101088.92
2019-02-02T14:47:01.515Z,101093.06
2019-02-02T14:49:34.642Z,101096.22
2019-02-02T14:52:06.014Z,101096.16
2019-02-02T14:54:38.222Z,101094.81
2019-02-02T14:57:09.606Z,101090.76
2019-02-02T14:59:40.682Z,101088.92
2019-02-02T15:02:11.832Z,101085.66
2019-02-02T15:04:44.434Z,101092.81
2019-02-02T15:07:15.636Z,101085.98
2019-02-02T15:09:46.804Z,101073.27
2019-02-02T15:12:18.002Z,101075.02
2019-02-02T15:14:49.295Z,101066.28
2019-02-02T15:17:20.599Z,101072.71
2019-02-02T15:19:51.751Z,101075.98
2019-02-02T15:22:23.057Z,101077.69
2019-02-02T15:24:54.250Z,101077.05
2019-02-02T15:27:26.470Z,101073.20
2019-02-02T15:29:58.268Z,101064.62
2019-02-02T15:32:29.372Z,101075.00
2019-02-02T15:35:00.654Z,101063.30
2019-02-02T15:37:31.825Z,101063.20
2019-02-02T15:40:03.092Z,101069.55
2019-02-02T15:42:34.267Z,101068.56
2019-02-02T15:45:06.930Z,101071.67
2019-02-02T15:47:38.219Z,101062.84
2019-02-02T15:50:11.847Z,101072.31
2019-02-02T15:52:43.042Z,101070.89
2019-02-02T15:55:18.631Z,101064.16
2019-02-02T15:57:49.912Z,101072.53
2019-02-02T16:00:26.050Z,101069.55
2019-02-02T16:02:57.233Z,101064.47
2019-02-02T16:05:29.222Z,101063.13
2019-02-02T16:08:01.966Z,101057.53
2019-02-02T16:10:33.646Z,101072.31
2019-02-02T16:13:05.023Z,101065.70
2019-02-02T16:15:36.122Z,101067.02
2019-02-02T16:18:07.503Z,101060.05
2019-02-02T16:20:46.407Z,101067.45
2019-02-02T16:23:17.558Z,101057.36
2019-02-02T16:25:48.781Z,101063.86
2019-02-02T16:28:20.134Z,101062.52
2019-02-02T16:30:51.302Z,101063.61
2019-02-02T16:33:23.162Z,101055.88
2019-02-02T16:35:54.454Z,101053.41
2019-02-02T16:38:25.704Z,101058.02
2019-02-02T16:40:56.919Z,101055.66
2019-02-02T16:43:28.212Z,101052.64
2019-02-02T16:45:59.433Z,101043.89
2019-02-02T16:48:30.717Z,101045.56
2019-02-02T16:51:01.929Z,101044.66
2019-02-02T16:53:33.100Z,101042.95
2019-02-02T16:56:05.229Z,101035.35
2019-02-02T16:58:37.701Z,101042.64
2019-02-02T17:01:09.105Z,101038.16
2019-02-02T17:03:40.323Z,101040.73
2019-02-02T17:06:13.031Z,101029.80
2019-02-02T17:08:44.265Z,101025.14
2019-02-02T17:11:16.421Z,101023.65
2019-02-02T17:13:47.767Z,101019.78
2019-02-02T17:16:19.004Z,101023.34
2019-02-02T17:18:50.179Z,101023.80
2019-02-02T17:21:21.383Z,101019.22
2019-02-02T17:23:52.705Z,101015.38
2019-02-02T17:26:24.304Z,101008.59
2019-02-02T17:28:55.498Z,101016.73
2019-02-02T17:31:26.758Z,101012.63
2019-02-02T17:33:58.123Z,101011.36
2019-02-02T17:36:31.418Z,101008.66
2019-02-02T17:39:02.700Z,101007.97
2019-02-02T17:41:35.629Z,101010.22
2019-02-02T17:44:07.142Z,100998.50
2019-02-02T17:46:38.683Z,101000.22
2019-02-02T17:49:09.923Z,100999.23
2019-02-02T17:51:41.020Z,100999.39
2019-02-02T17:54:12.623Z,101005.39
2019-02-02T17:56:43.956Z,100982.93
2019-02-02T17:59:15.919Z,101003.31
2019-02-02T18:01:47.038Z,101007.73
2019-02-02T18:04:18.130Z,100996.48
2019-02-02T18:06:49.612Z,100990.70
2019-02-02T18:09:20.683Z,100993.28
2019-02-02T18:11:53.557Z,100985.78
2019-02-02T18:14:25.663Z,100980.03
2019-02-02T18:16:57.119Z,100976.06
2019-02-02T18:19:28.711Z,100977.72
2019-02-02T18:21:59.916Z,100982.36
2019-02-02T18:24:31.158Z,100983.27
2019-02-02T18:27:02.807Z,100985.48
2019-02-02T18:29:33.992Z,100968.52
2019-02-02T18:32:12.716Z,100967.93
2019-02-02T18:34:38.202Z,100974.34
2019-02-02T18:37:09.432Z,100970.55
2019-02-02T18:39:40.652Z,100963.21
2019-02-02T18:42:11.870Z,100951.74
2019-02-02T18:44:43.073Z,100943.06
2019-02-02T18:47:15.939Z,100946.80
2019-02-02T18:49:47.118Z,100940.74
2019-02-02T18:52:18.296Z,100945.44
2019-02-02T18:54:49.521Z,100943.60
2019-02-02T18:57:22.176Z,100939.94
2019-02-02T18:59:53.931Z,100943.97
2019-02-02T19:02:26.132Z,100933.94
2019-02-02T19:05:03.790Z,100939.52
2019-02-02T19:07:30.141Z,100939.03
2019-02-02T19:10:01.322Z,100934.25
2019-02-02T19:12:34.121Z,100931.86
2019-02-02T19:15:06.032Z,100924.17
2019-02-02T19:17:38.252Z,100925.08
2019-02-02T19:20:12.339Z,100910.44
2019-02-02T19:22:44.765Z,100905.70
2019-02-02T19:25:15.957Z,100912.67
2019-02-02T19:27:47.055Z,100918.50
2019-02-02T19:30:20.507Z,100923.32
2019-02-02T19:32:51.738Z,100914.09
2019-02-02T19:35:22.890Z,100923.20
2019-02-02T19:37:55.672Z,100918.66
2019-02-02T19:40:26.868Z,100921.23
2019-02-02T19:42:58.107Z,100916.64
2019-02-02T19:45:29.326Z,100915.48
2019-02-02T19:48:00.570Z,100914.27
2019-02-02T19:50:32.913Z,100908.33
2019-02-02T19:53:04.943Z,100897.40
2019-02-02T19:55:36.783Z,100888.30
2019-02-02T19:58:08.626Z,100888.11
2019-02-02T20:00:39.891Z,100883.27
2019-02-02T20:03:11.226Z,100888.73
2019-02-02T20:05:42.917Z,100889.94
2019-02-02T20:08:14.043Z,100882.55
2019-02-02T20:10:47.221Z,100879.19
2019-02-02T20:13:19.582Z,100877.23
2019-02-02T20:15:50.966Z,100875.16
2019-02-02T20:18:24.962Z,100861.63
2019-02-02T20:20:55.927Z,100867.80
2019-02-02T20:23:28.717Z,100856.38
2019-02-02T20:25:59.887Z,100871.78
2019-02-02T20:28:31.168Z,100869.83
2019-02-02T20:31:02.902Z,100874.34
2019-02-02T20:33:34.008Z,100880.53
2019-02-02T20:36:06.416Z,100880.22
2019-02-02T20:38:40.053Z,100877.53
2019-02-02T20:41:10.968Z,100885.05
2019-02-02T20:43:42.914Z,100889.64
2019-02-02T20:46:14.111Z,100898.08
2019-02-02T20:48:45.363Z,100895.20
2019-02-02T20:51:16.610Z,100885.30
2019-02-02T20:53:47.770Z,100889.33
2019-02-02T20:56:18.949Z,100872.56
2019-02-02T20:58:50.130Z,100874.17
2019-02-02T21:01:21.311Z,100870.23
2019-02-02T21:03:53.013Z,100873.61
2019-02-02T21:06:24.201Z,100874.66
2019-02-02T21:08:55.397Z,100871.13
2019-02-02T21:11:26.938Z,100868.30
2019-02-02T21:13:58.193Z,100862.55
2019-02-02T21:16:31.732Z,100854.36
2019-02-02T21:19:03.036Z,100839.22
2019-02-02T21:21:34.321Z,100842.52
2019-02-02T21:24:05.624Z,100838.66
2019-02-02T21:26:37.310Z,100833.47
2019-02-02T21:29:08.537Z,100837.13
2019-02-02T21:31:39.784Z,100822.34
2019-02-02T21:34:11.178Z,100840.50
2019-02-02T21:36:42.734Z,100829.31
2019-02-02T21:39:14.274Z,100831.14
2019-02-02T21:41:45.726Z,100828.14
2019-02-02T21:44:16.862Z,100828.39
2019-02-02T21:46:53.055Z,100815.56
2019-02-02T21:49:24.258Z,100814.64
2019-02-02T21:51:55.418Z,100813.62
2019-02-02T21:54:26.880Z,100808.19
2019-02-02T21:56:58.037Z,100807.97
2019-02-02T21:59:29.638Z,100809.98
2019-02-02T22:02:00.893Z,100811.22
2019-02-02T22:04:32.750Z,100805.55
2019-02-02T22:07:04.048Z,100795.77
2019-02-02T22:09:35.539Z,100787.17
2019-02-02T22:12:06.798Z,100785.32
2019-02-02T22:14:37.991Z,100775.60
2019-02-02T22:17:09.148Z,100774.15
2019-02-02T22:19:40.341Z,100761.44
2019-02-02T22:22:11.568Z,100757.77
2019-02-02T22:24:42.811Z,100748.40
2019-02-02T22:27:14.337Z,100760.45
2019-02-02T22:29:46.673Z,100737.64
2019-02-02T22:32:18.288Z,100734.87
2019-02-02T22:34:49.362Z,100734.92
2019-02-02T22:37:20.523Z,100727.79
2019-02-02T22:39:51.651Z,100726.17
2019-02-02T22:42:22.788Z,100728.55
2019-02-02T22:44:54.171Z,100726.80
2019-02-02T22:47:25.321Z,100726.13
2019-02-02T22:49:56.485Z,100716.69
2019-02-02T22:52:28.403Z,100718.43
2019-02-02T22:55:03.252Z,100713.36
2019-02-02T22:57:34.482Z,100712.52
2019-02-02T23:00:15.952Z,100704.94
2019-02-02T23:02:49.206Z,100705.34
2019-02-02T23:05:46.591Z,100695.57
2019-02-02T23:09:00.851Z,100699.28
2019-02-02T23:12:14.018Z,100689.94
2019-02-02T23:15:41.720Z,100689.30
2019-02-02T23:18:12.880Z,100684.42
2019-02-02T23:20:44.042Z,100674.56
2019-02-02T23:23:15.210Z,100670.67
2019-02-02T23:25:46.468Z,100671.34
2019-02-02T23:28:17.671Z,100659.28
2019-02-02T23:30:48.869Z,100654.36
2019-02-02T23:33:21.012Z,100655.88
2019-02-02T23:35:53.185Z,100657.55
2019-02-02T23:38:24.402Z,100663.91
2019-02-02T23:40:55.546Z,100653.79
2019-02-02T23:43:26.756Z,100642.98
2019-02-02T23:45:57.922Z,100649.88
2019-02-02T23:48:29.796Z,100637.95
2019-02-02T23:51:00.935Z,100637.59
2019-02-02T23:53:32.716Z,100631.41
2019-02-02T23:56:04.557Z,100635.41
2019-02-02T23:58:35.761Z,100635.52
